sensor_id;sensor_type;location;lat;lon;timestamp;P1;durP1;ratioP1;P2;durP2;ratioP2
12145;SDS011;6136;47.032;15.398;2023-10-19T00:02:09;19.50;;;13.67;;
12145;SDS011;6136;47.032;15.398;2023-10-19T00:04:42;22.23;;;15.90;;
12145;SDS011;6136;47.032;15.398;2023-10-19T00:07:10;20.30;;;14.13;;
12145;SDS011;6136;47.032;15.398;2023-10-19T00:09:43;20.83;;;13.97;;
12145;SDS011;6136;47.032;15.398;2023-10-19T00:12:14;20.40;;;14.30;;
12145;SDS011;6136;47.032;15.398;2023-10-19T00:14:43;20.83;;;14.23;;
12145;SDS011;6136;47.032;15.398;2023-10-19T00:17:12;19.70;;;14.60;;
12145;SDS011;6136;47.032;15.398;2023-10-19T00:19:41;19.80;;;13.93;;
12145;SDS011;6136;47.032;15.398;2023-10-19T00:22:24;20.27;;;15.00;;
12145;SDS011;6136;47.032;15.398;2023-10-19T00:24:55;23.67;;;15.37;;
12145;SDS011;6136;47.032;15.398;2023-10-19T00:27:25;19.73;;;15.17;;
12145;SDS011;6136;47.032;15.398;2023-10-19T00:29:54;19.17;;;14.57;;
12145;SDS011;6136;47.032;15.398;2023-10-19T00:32:34;19.03;;;13.87;;
12145;SDS011;6136;47.032;15.398;2023-10-19T00:35:05;19.80;;;14.43;;
12145;SDS011;6136;47.032;15.398;2023-10-19T00:37:54;20.53;;;15.20;;
12145;SDS011;6136;47.032;15.398;2023-10-19T00:40:49;20.57;;;14.83;;
12145;SDS011;6136;47.032;15.398;2023-10-19T00:43:26;23.53;;;16.37;;
12145;SDS011;6136;47.032;15.398;2023-10-19T00:45:59;21.43;;;14.70;;
12145;SDS011;6136;47.032;15.398;2023-10-19T00:48:45;21.23;;;15.37;;
12145;SDS011;6136;47.032;15.398;2023-10-19T00:51:16;20.17;;;14.47;;
12145;SDS011;6136;47.032;15.398;2023-10-19T00:54:09;22.20;;;15.23;;
12145;SDS011;6136;47.032;15.398;2023-10-19T00:56:41;24.43;;;15.80;;
12145;SDS011;6136;47.032;15.398;2023-10-19T00:59:15;21.17;;;14.23;;
12145;SDS011;6136;47.032;15.398;2023-10-19T01:01:50;20.43;;;15.73;;
12145;SDS011;6136;47.032;15.398;2023-10-19T01:04:26;22.87;;;15.93;;
12145;SDS011;6136;47.032;15.398;2023-10-19T01:07:00;20.60;;;15.50;;
12145;SDS011;6136;47.032;15.398;2023-10-19T01:09:32;23.57;;;15.33;;
12145;SDS011;6136;47.032;15.398;2023-10-19T01:12:03;23.23;;;15.80;;
12145;SDS011;6136;47.032;15.398;2023-10-19T01:15:05;19.70;;;14.10;;
12145;SDS011;6136;47.032;15.398;2023-10-19T01:17:36;19.43;;;14.77;;
12145;SDS011;6136;47.032;15.398;2023-10-19T01:20:12;23.60;;;15.50;;
12145;SDS011;6136;47.032;15.398;2023-10-19T01:22:53;19.10;;;14.83;;
12145;SDS011;6136;47.032;15.398;2023-10-19T01:25:47;18.33;;;13.73;;
12145;SDS011;6136;47.032;15.398;2023-10-19T01:28:27;24.30;;;15.47;;
12145;SDS011;6136;47.032;15.398;2023-10-19T01:31:10;21.17;;;14.10;;
12145;SDS011;6136;47.032;15.398;2023-10-19T01:33:43;21.10;;;15.60;;
12145;SDS011;6136;47.032;15.398;2023-10-19T01:36:12;19.60;;;14.60;;
12145;SDS011;6136;47.032;15.398;2023-10-19T01:38:54;21.10;;;15.03;;
12145;SDS011;6136;47.032;15.398;2023-10-19T01:41:28;17.13;;;13.23;;
12145;SDS011;6136;47.032;15.398;2023-10-19T01:43:58;21.43;;;15.10;;
12145;SDS011;6136;47.032;15.398;2023-10-19T01:46:31;19.03;;;14.30;;
12145;SDS011;6136;47.032;15.398;2023-10-19T01:49:01;20.67;;;14.63;;
12145;SDS011;6136;47.032;15.398;2023-10-19T01:51:32;18.20;;;14.03;;
12145;SDS011;6136;47.032;15.398;2023-10-19T01:54:05;19.77;;;13.83;;
12145;SDS011;6136;47.032;15.398;2023-10-19T01:56:34;19.97;;;14.77;;
12145;SDS011;6136;47.032;15.398;2023-10-19T01:59:03;19.80;;;14.27;;
12145;SDS011;6136;47.032;15.398;2023-10-19T02:01:32;19.90;;;14.40;;
12145;SDS011;6136;47.032;15.398;2023-10-19T02:04:01;24.07;;;17.20;;
12145;SDS011;6136;47.032;15.398;2023-10-19T02:06:32;25.53;;;16.53;;
12145;SDS011;6136;47.032;15.398;2023-10-19T02:09:05;26.20;;;16.87;;
12145;SDS011;6136;47.032;15.398;2023-10-19T02:11:44;22.07;;;14.93;;
12145;SDS011;6136;47.032;15.398;2023-10-19T02:14:14;24.80;;;17.47;;
12145;SDS011;6136;47.032;15.398;2023-10-19T02:16:45;21.93;;;16.40;;
12145;SDS011;6136;47.032;15.398;2023-10-19T02:19:14;19.83;;;14.87;;
12145;SDS011;6136;47.032;15.398;2023-10-19T02:21:42;24.23;;;17.03;;
12145;SDS011;6136;47.032;15.398;2023-10-19T02:24:11;22.93;;;16.40;;
12145;SDS011;6136;47.032;15.398;2023-10-19T02:26:41;22.07;;;15.90;;
12145;SDS011;6136;47.032;15.398;2023-10-19T02:29:09;23.73;;;16.30;;
12145;SDS011;6136;47.032;15.398;2023-10-19T02:31:39;22.47;;;16.70;;
12145;SDS011;6136;47.032;15.398;2023-10-19T02:34:08;22.43;;;15.70;;
12145;SDS011;6136;47.032;15.398;2023-10-19T02:36:37;22.33;;;16.37;;
12145;SDS011;6136;47.032;15.398;2023-10-19T02:39:07;21.53;;;14.93;;
12145;SDS011;6136;47.032;15.398;2023-10-19T02:41:39;23.37;;;16.50;;
12145;SDS011;6136;47.032;15.398;2023-10-19T02:44:08;23.93;;;15.70;;
12145;SDS011;6136;47.032;15.398;2023-10-19T02:46:41;20.00;;;14.70;;
12145;SDS011;6136;47.032;15.398;2023-10-19T02:49:09;20.87;;;14.63;;
12145;SDS011;6136;47.032;15.398;2023-10-19T02:51:40;18.57;;;14.07;;
12145;SDS011;6136;47.032;15.398;2023-10-19T02:54:11;21.80;;;15.37;;
12145;SDS011;6136;47.032;15.398;2023-10-19T02:56:46;21.23;;;14.67;;
12145;SDS011;6136;47.032;15.398;2023-10-19T02:59:16;19.93;;;14.60;;
12145;SDS011;6136;47.032;15.398;2023-10-19T03:01:49;18.30;;;13.80;;
12145;SDS011;6136;47.032;15.398;2023-10-19T03:04:17;19.37;;;14.70;;
12145;SDS011;6136;47.032;15.398;2023-10-19T03:06:47;19.47;;;13.53;;
12145;SDS011;6136;47.032;15.398;2023-10-19T03:09:16;18.63;;;13.43;;
12145;SDS011;6136;47.032;15.398;2023-10-19T03:11:51;23.87;;;15.77;;
12145;SDS011;6136;47.032;15.398;2023-10-19T03:14:21;21.07;;;14.43;;
12145;SDS011;6136;47.032;15.398;2023-10-19T03:16:52;19.83;;;14.07;;
12145;SDS011;6136;47.032;15.398;2023-10-19T03:19:22;20.63;;;14.93;;
12145;SDS011;6136;47.032;15.398;2023-10-19T03:21:52;20.47;;;14.67;;
12145;SDS011;6136;47.032;15.398;2023-10-19T03:24:22;19.17;;;14.13;;
12145;SDS011;6136;47.032;15.398;2023-10-19T03:26:52;19.20;;;14.33;;
12145;SDS011;6136;47.032;15.398;2023-10-19T03:29:21;23.20;;;15.20;;
12145;SDS011;6136;47.032;15.398;2023-10-19T03:31:54;22.03;;;14.00;;
12145;SDS011;6136;47.032;15.398;2023-10-19T03:34:23;20.60;;;13.93;;
12145;SDS011;6136;47.032;15.398;2023-10-19T03:36:51;20.90;;;13.53;;
12145;SDS011;6136;47.032;15.398;2023-10-19T03:39:21;21.07;;;15.10;;
12145;SDS011;6136;47.032;15.398;2023-10-19T03:41:49;18.80;;;13.70;;
12145;SDS011;6136;47.032;15.398;2023-10-19T03:44:19;21.70;;;14.33;;
12145;SDS011;6136;47.032;15.398;2023-10-19T03:46:51;20.03;;;13.90;;
12145;SDS011;6136;47.032;15.398;2023-10-19T03:49:25;21.67;;;14.77;;
12145;SDS011;6136;47.032;15.398;2023-10-19T03:52:05;21.40;;;15.23;;
12145;SDS011;6136;47.032;15.398;2023-10-19T03:54:48;21.60;;;14.97;;
12145;SDS011;6136;47.032;15.398;2023-10-19T03:57:19;20.93;;;14.57;;
12145;SDS011;6136;47.032;15.398;2023-10-19T03:59:50;18.97;;;13.53;;
12145;SDS011;6136;47.032;15.398;2023-10-19T04:02:23;18.73;;;14.83;;
12145;SDS011;6136;47.032;15.398;2023-10-19T04:04:54;20.63;;;13.87;;
12145;SDS011;6136;47.032;15.398;2023-10-19T04:07:24;21.93;;;15.10;;
12145;SDS011;6136;47.032;15.398;2023-10-19T04:09:53;23.93;;;15.37;;
12145;SDS011;6136;47.032;15.398;2023-10-19T04:12:38;20.40;;;15.33;;
12145;SDS011;6136;47.032;15.398;2023-10-19T04:15:09;19.07;;;14.27;;
12145;SDS011;6136;47.032;15.398;2023-10-19T04:17:42;22.10;;;15.17;;
12145;SDS011;6136;47.032;15.398;2023-10-19T04:20:12;20.40;;;14.50;;
12145;SDS011;6136;47.032;15.398;2023-10-19T04:22:56;24.60;;;16.43;;
12145;SDS011;6136;47.032;15.398;2023-10-19T04:25:33;18.53;;;13.33;;
12145;SDS011;6136;47.032;15.398;2023-10-19T04:28:03;19.07;;;14.07;;
12145;SDS011;6136;47.032;15.398;2023-10-19T04:30:31;19.73;;;14.50;;
12145;SDS011;6136;47.032;15.398;2023-10-19T04:33:03;18.33;;;12.53;;
12145;SDS011;6136;47.032;15.398;2023-10-19T04:35:36;17.87;;;13.77;;
12145;SDS011;6136;47.032;15.398;2023-10-19T04:38:08;26.97;;;15.00;;
12145;SDS011;6136;47.032;15.398;2023-10-19T04:40:36;21.37;;;14.57;;
12145;SDS011;6136;47.032;15.398;2023-10-19T04:43:06;18.17;;;13.30;;
12145;SDS011;6136;47.032;15.398;2023-10-19T04:45:35;22.23;;;15.37;;
12145;SDS011;6136;47.032;15.398;2023-10-19T04:48:07;18.03;;;12.93;;
12145;SDS011;6136;47.032;15.398;2023-10-19T04:50:36;20.13;;;13.33;;
12145;SDS011;6136;47.032;15.398;2023-10-19T04:53:06;20.03;;;15.10;;
12145;SDS011;6136;47.032;15.398;2023-10-19T04:55:35;21.43;;;15.03;;
12145;SDS011;6136;47.032;15.398;2023-10-19T04:58:03;23.87;;;14.00;;
12145;SDS011;6136;47.032;15.398;2023-10-19T05:00:34;20.87;;;14.63;;
12145;SDS011;6136;47.032;15.398;2023-10-19T05:03:02;21.07;;;14.33;;
12145;SDS011;6136;47.032;15.398;2023-10-19T05:05:31;21.17;;;14.00;;
12145;SDS011;6136;47.032;15.398;2023-10-19T05:07:59;22.43;;;14.80;;
12145;SDS011;6136;47.032;15.398;2023-10-19T05:10:29;18.87;;;13.07;;
12145;SDS011;6136;47.032;15.398;2023-10-19T05:12:57;22.83;;;14.63;;
12145;SDS011;6136;47.032;15.398;2023-10-19T05:15:26;19.50;;;14.90;;
12145;SDS011;6136;47.032;15.398;2023-10-19T05:17:55;25.87;;;17.20;;
12145;SDS011;6136;47.032;15.398;2023-10-19T05:20:24;22.87;;;17.60;;
12145;SDS011;6136;47.032;15.398;2023-10-19T05:22:53;30.43;;;16.20;;
12145;SDS011;6136;47.032;15.398;2023-10-19T05:25:21;21.60;;;16.00;;
12145;SDS011;6136;47.032;15.398;2023-10-19T05:27:51;26.53;;;15.87;;
12145;SDS011;6136;47.032;15.398;2023-10-19T05:30:19;20.47;;;15.57;;
12145;SDS011;6136;47.032;15.398;2023-10-19T05:32:50;24.07;;;14.83;;
12145;SDS011;6136;47.032;15.398;2023-10-19T05:35:20;20.97;;;15.17;;
12145;SDS011;6136;47.032;15.398;2023-10-19T05:37:50;22.57;;;16.10;;
12145;SDS011;6136;47.032;15.398;2023-10-19T05:40:19;27.77;;;15.37;;
12145;SDS011;6136;47.032;15.398;2023-10-19T05:42:49;19.83;;;15.13;;
12145;SDS011;6136;47.032;15.398;2023-10-19T05:45:17;21.43;;;15.27;;
12145;SDS011;6136;47.032;15.398;2023-10-19T05:47:46;23.03;;;15.20;;
12145;SDS011;6136;47.032;15.398;2023-10-19T05:50:15;24.07;;;15.77;;
12145;SDS011;6136;47.032;15.398;2023-10-19T05:52:45;19.23;;;14.00;;
12145;SDS011;6136;47.032;15.398;2023-10-19T05:55:14;20.00;;;13.97;;
12145;SDS011;6136;47.032;15.398;2023-10-19T05:57:42;17.67;;;14.10;;
12145;SDS011;6136;47.032;15.398;2023-10-19T06:00:11;19.70;;;15.00;;
12145;SDS011;6136;47.032;15.398;2023-10-19T06:02:41;24.80;;;15.50;;
12145;SDS011;6136;47.032;15.398;2023-10-19T06:05:12;19.70;;;14.83;;
12145;SDS011;6136;47.032;15.398;2023-10-19T06:07:42;23.73;;;15.87;;
12145;SDS011;6136;47.032;15.398;2023-10-19T06:10:14;23.73;;;16.00;;
12145;SDS011;6136;47.032;15.398;2023-10-19T06:12:44;29.30;;;17.47;;
12145;SDS011;6136;47.032;15.398;2023-10-19T06:15:13;22.77;;;15.57;;
12145;SDS011;6136;47.032;15.398;2023-10-19T06:17:43;24.57;;;17.47;;
12145;SDS011;6136;47.032;15.398;2023-10-19T06:20:13;23.20;;;15.97;;
12145;SDS011;6136;47.032;15.398;2023-10-19T06:22:52;19.87;;;15.03;;
12145;SDS011;6136;47.032;15.398;2023-10-19T06:25:23;22.70;;;14.93;;
12145;SDS011;6136;47.032;15.398;2023-10-19T06:27:52;20.20;;;14.60;;
12145;SDS011;6136;47.032;15.398;2023-10-19T06:30:24;22.00;;;15.63;;
12145;SDS011;6136;47.032;15.398;2023-10-19T06:32:55;22.27;;;15.13;;
12145;SDS011;6136;47.032;15.398;2023-10-19T06:35:28;20.67;;;15.03;;
12145;SDS011;6136;47.032;15.398;2023-10-19T06:38:00;20.60;;;15.57;;
12145;SDS011;6136;47.032;15.398;2023-10-19T06:40:30;20.30;;;14.13;;
12145;SDS011;6136;47.032;15.398;2023-10-19T06:43:03;18.73;;;14.93;;
12145;SDS011;6136;47.032;15.398;2023-10-19T06:45:32;19.03;;;14.40;;
12145;SDS011;6136;47.032;15.398;2023-10-19T06:48:00;25.10;;;13.97;;
12145;SDS011;6136;47.032;15.398;2023-10-19T06:50:31;17.40;;;12.80;;
12145;SDS011;6136;47.032;15.398;2023-10-19T06:53:01;22.63;;;13.17;;
12145;SDS011;6136;47.032;15.398;2023-10-19T06:55:32;15.73;;;11.47;;
12145;SDS011;6136;47.032;15.398;2023-10-19T06:58:01;19.93;;;13.03;;
12145;SDS011;6136;47.032;15.398;2023-10-19T07:00:29;19.27;;;13.20;;
12145;SDS011;6136;47.032;15.398;2023-10-19T07:02:58;20.53;;;13.27;;
12145;SDS011;6136;47.032;15.398;2023-10-19T07:05:29;17.77;;;13.43;;
12145;SDS011;6136;47.032;15.398;2023-10-19T07:07:58;15.90;;;12.23;;
12145;SDS011;6136;47.032;15.398;2023-10-19T07:10:30;15.37;;;12.73;;
12145;SDS011;6136;47.032;15.398;2023-10-19T07:12:59;14.83;;;11.30;;
12145;SDS011;6136;47.032;15.398;2023-10-19T07:15:28;17.07;;;12.20;;
12145;SDS011;6136;47.032;15.398;2023-10-19T07:17:57;18.57;;;13.13;;
12145;SDS011;6136;47.032;15.398;2023-10-19T07:20:26;16.80;;;12.43;;
12145;SDS011;6136;47.032;15.398;2023-10-19T07:22:56;14.33;;;10.83;;
12145;SDS011;6136;47.032;15.398;2023-10-19T07:25:27;19.73;;;11.97;;
12145;SDS011;6136;47.032;15.398;2023-10-19T07:27:57;12.53;;;10.20;;
12145;SDS011;6136;47.032;15.398;2023-10-19T07:30:27;24.03;;;13.10;;
12145;SDS011;6136;47.032;15.398;2023-10-19T07:32:57;16.50;;;11.80;;
12145;SDS011;6136;47.032;15.398;2023-10-19T07:35:26;15.07;;;12.23;;
12145;SDS011;6136;47.032;15.398;2023-10-19T07:38:01;16.90;;;12.10;;
12145;SDS011;6136;47.032;15.398;2023-10-19T07:40:31;14.57;;;12.67;;
12145;SDS011;6136;47.032;15.398;2023-10-19T07:43:01;14.77;;;12.83;;
12145;SDS011;6136;47.032;15.398;2023-10-19T07:45:31;15.03;;;12.50;;
12145;SDS011;6136;47.032;15.398;2023-10-19T07:48:01;14.23;;;12.37;;
12145;SDS011;6136;47.032;15.398;2023-10-19T07:50:34;17.25;;;11.63;;
12145;SDS011;6136;47.032;15.398;2023-10-19T07:53:03;14.32;;;11.65;;
12145;SDS011;6136;47.032;15.398;2023-10-19T07:55:32;16.85;;;13.07;;
12145;SDS011;6136;47.032;15.398;2023-10-19T07:58:02;16.85;;;12.40;;
12145;SDS011;6136;47.032;15.398;2023-10-19T08:00:31;16.50;;;13.05;;
12145;SDS011;6136;47.032;15.398;2023-10-19T08:03:01;14.80;;;12.77;;
12145;SDS011;6136;47.032;15.398;2023-10-19T08:05:30;19.00;;;13.23;;
12145;SDS011;6136;47.032;15.398;2023-10-19T08:07:58;15.57;;;13.40;;
12145;SDS011;6136;47.032;15.398;2023-10-19T08:10:27;13.38;;;11.98;;
12145;SDS011;6136;47.032;15.398;2023-10-19T08:12:56;15.38;;;12.70;;
12145;SDS011;6136;47.032;15.398;2023-10-19T08:15:27;14.05;;;12.57;;
12145;SDS011;6136;47.032;15.398;2023-10-19T08:17:57;15.70;;;12.85;;
12145;SDS011;6136;47.032;15.398;2023-10-19T08:20:26;16.50;;;14.07;;
12145;SDS011;6136;47.032;15.398;2023-10-19T08:22:58;14.55;;;12.40;;
12145;SDS011;6136;47.032;15.398;2023-10-19T08:25:29;15.13;;;11.82;;
12145;SDS011;6136;47.032;15.398;2023-10-19T08:28:00;20.75;;;13.27;;
12145;SDS011;6136;47.032;15.398;2023-10-19T08:30:30;17.13;;;13.25;;
12145;SDS011;6136;47.032;15.398;2023-10-19T08:33:00;16.48;;;12.77;;
12145;SDS011;6136;47.032;15.398;2023-10-19T08:35:29;18.77;;;13.38;;
12145;SDS011;6136;47.032;15.398;2023-10-19T08:37:59;18.33;;;13.18;;
12145;SDS011;6136;47.032;15.398;2023-10-19T08:40:33;15.18;;;12.07;;
12145;SDS011;6136;47.032;15.398;2023-10-19T08:43:02;17.05;;;13.70;;
12145;SDS011;6136;47.032;15.398;2023-10-19T08:45:32;18.47;;;12.73;;
12145;SDS011;6136;47.032;15.398;2023-10-19T08:48:02;14.87;;;12.83;;
12145;SDS011;6136;47.032;15.398;2023-10-19T08:50:32;17.40;;;13.77;;
12145;SDS011;6136;47.032;15.398;2023-10-19T08:53:02;16.57;;;11.70;;
12145;SDS011;6136;47.032;15.398;2023-10-19T08:55:31;19.07;;;13.30;;
12145;SDS011;6136;47.032;15.398;2023-10-19T08:58:04;14.67;;;12.17;;
12145;SDS011;6136;47.032;15.398;2023-10-19T09:00:43;16.33;;;12.47;;
12145;SDS011;6136;47.032;15.398;2023-10-19T09:03:16;16.30;;;13.37;;
12145;SDS011;6136;47.032;15.398;2023-10-19T09:05:45;18.67;;;12.37;;
12145;SDS011;6136;47.032;15.398;2023-10-19T09:08:15;16.70;;;12.97;;
12145;SDS011;6136;47.032;15.398;2023-10-19T09:10:45;17.63;;;12.83;;
12145;SDS011;6136;47.032;15.398;2023-10-19T09:13:15;15.70;;;12.50;;
12145;SDS011;6136;47.032;15.398;2023-10-19T09:15:48;17.57;;;12.67;;
12145;SDS011;6136;47.032;15.398;2023-10-19T09:18:17;19.37;;;13.70;;
12145;SDS011;6136;47.032;15.398;2023-10-19T09:20:47;17.40;;;13.80;;
12145;SDS011;6136;47.032;15.398;2023-10-19T09:23:30;25.90;;;13.07;;
12145;SDS011;6136;47.032;15.398;2023-10-19T09:25:59;16.80;;;12.37;;
12145;SDS011;6136;47.032;15.398;2023-10-19T09:28:31;19.43;;;14.63;;
12145;SDS011;6136;47.032;15.398;2023-10-19T09:31:02;17.87;;;13.53;;
12145;SDS011;6136;47.032;15.398;2023-10-19T09:33:31;15.27;;;12.03;;
12145;SDS011;6136;47.032;15.398;2023-10-19T09:36:02;16.40;;;12.67;;
12145;SDS011;6136;47.032;15.398;2023-10-19T09:38:43;18.47;;;11.10;;
12145;SDS011;6136;47.032;15.398;2023-10-19T09:41:15;14.10;;;11.40;;
12145;SDS011;6136;47.032;15.398;2023-10-19T09:43:46;15.10;;;11.30;;
12145;SDS011;6136;47.032;15.398;2023-10-19T09:46:21;12.63;;;10.50;;
12145;SDS011;6136;47.032;15.398;2023-10-19T09:48:53;17.57;;;11.53;;
12145;SDS011;6136;47.032;15.398;2023-10-19T09:51:22;14.65;;;10.88;;
12145;SDS011;6136;47.032;15.398;2023-10-19T09:53:53;11.05;;;9.45;;
12145;SDS011;6136;47.032;15.398;2023-10-19T09:56:29;10.98;;;9.85;;
12145;SDS011;6136;47.032;15.398;2023-10-19T09:59:05;10.60;;;9.20;;
12145;SDS011;6136;47.032;15.398;2023-10-19T10:04:40;9.60;;;8.63;;
12145;SDS011;6136;47.032;15.398;2023-10-19T10:07:12;10.48;;;8.68;;
12145;SDS011;6136;47.032;15.398;2023-10-19T10:09:57;9.20;;;8.32;;
12145;SDS011;6136;47.032;15.398;2023-10-19T10:12:26;10.15;;;8.65;;
12145;SDS011;6136;47.032;15.398;2023-10-19T10:14:56;10.43;;;8.05;;
12145;SDS011;6136;47.032;15.398;2023-10-19T10:17:27;7.72;;;7.03;;
12145;SDS011;6136;47.032;15.398;2023-10-19T10:19:59;8.80;;;7.97;;
12145;SDS011;6136;47.032;15.398;2023-10-19T10:25:45;8.93;;;7.43;;
12145;SDS011;6136;47.032;15.398;2023-10-19T10:28:15;8.38;;;7.28;;
12145;SDS011;6136;47.032;15.398;2023-10-19T10:33:43;8.02;;;7.22;;
12145;SDS011;6136;47.032;15.398;2023-10-19T10:36:13;9.27;;;6.78;;
12145;SDS011;6136;47.032;15.398;2023-10-19T10:38:44;7.88;;;7.07;;
12145;SDS011;6136;47.032;15.398;2023-10-19T10:41:19;6.82;;;6.13;;
12145;SDS011;6136;47.032;15.398;2023-10-19T10:43:51;7.75;;;6.38;;
12145;SDS011;6136;47.032;15.398;2023-10-19T10:46:22;8.77;;;6.43;;
12145;SDS011;6136;47.032;15.398;2023-10-19T10:48:53;8.23;;;6.72;;
12145;SDS011;6136;47.032;15.398;2023-10-19T10:51:22;8.05;;;6.93;;
12145;SDS011;6136;47.032;15.398;2023-10-19T10:53:52;9.98;;;6.88;;
12145;SDS011;6136;47.032;15.398;2023-10-19T10:56:22;10.80;;;7.90;;
12145;SDS011;6136;47.032;15.398;2023-10-19T10:58:51;10.48;;;7.10;;
12145;SDS011;6136;47.032;15.398;2023-10-19T11:01:28;8.10;;;7.22;;
12145;SDS011;6136;47.032;15.398;2023-10-19T11:04:09;8.50;;;6.72;;
12145;SDS011;6136;47.032;15.398;2023-10-19T11:06:48;8.20;;;7.18;;
12145;SDS011;6136;47.032;15.398;2023-10-19T11:09:17;9.13;;;7.00;;
12145;SDS011;6136;47.032;15.398;2023-10-19T11:11:49;8.05;;;6.20;;
12145;SDS011;6136;47.032;15.398;2023-10-19T11:14:19;7.78;;;6.97;;
12145;SDS011;6136;47.032;15.398;2023-10-19T11:16:50;7.60;;;6.63;;
12145;SDS011;6136;47.032;15.398;2023-10-19T11:19:20;11.43;;;6.63;;
12145;SDS011;6136;47.032;15.398;2023-10-19T11:21:53;9.52;;;6.28;;
12145;SDS011;6136;47.032;15.398;2023-10-19T11:24:25;9.80;;;7.00;;
12145;SDS011;6136;47.032;15.398;2023-10-19T11:26:59;7.80;;;5.95;;
12145;SDS011;6136;47.032;15.398;2023-10-19T11:29:28;12.63;;;5.90;;
12145;SDS011;6136;47.032;15.398;2023-10-19T11:31:57;9.15;;;6.68;;
12145;SDS011;6136;47.032;15.398;2023-10-19T11:34:28;8.88;;;6.50;;
12145;SDS011;6136;47.032;15.398;2023-10-19T11:36:58;6.70;;;5.93;;
12145;SDS011;6136;47.032;15.398;2023-10-19T11:39:27;8.20;;;6.15;;
12145;SDS011;6136;47.032;15.398;2023-10-19T11:41:56;6.43;;;5.55;;
12145;SDS011;6136;47.032;15.398;2023-10-19T11:44:25;6.82;;;5.38;;
12145;SDS011;6136;47.032;15.398;2023-10-19T11:46:53;8.18;;;5.35;;
12145;SDS011;6136;47.032;15.398;2023-10-19T11:49:21;7.60;;;5.65;;
12145;SDS011;6136;47.032;15.398;2023-10-19T11:51:54;5.47;;;4.97;;
12145;SDS011;6136;47.032;15.398;2023-10-19T11:54:22;5.60;;;5.03;;
12145;SDS011;6136;47.032;15.398;2023-10-19T11:56:53;6.82;;;5.65;;
12145;SDS011;6136;47.032;15.398;2023-10-19T11:59:21;7.65;;;5.70;;
12145;SDS011;6136;47.032;15.398;2023-10-19T12:01:50;5.35;;;4.85;;
12145;SDS011;6136;47.032;15.398;2023-10-19T12:04:19;4.85;;;4.13;;
12145;SDS011;6136;47.032;15.398;2023-10-19T12:06:47;5.47;;;4.97;;
12145;SDS011;6136;47.032;15.398;2023-10-19T12:09:17;5.50;;;4.93;;
12145;SDS011;6136;47.032;15.398;2023-10-19T12:11:50;4.80;;;4.32;;
12145;SDS011;6136;47.032;15.398;2023-10-19T12:14:21;5.50;;;4.97;;
12145;SDS011;6136;47.032;15.398;2023-10-19T12:16:49;6.57;;;5.13;;
12145;SDS011;6136;47.032;15.398;2023-10-19T12:19:18;5.40;;;4.70;;
12145;SDS011;6136;47.032;15.398;2023-10-19T12:21:46;5.43;;;4.00;;
12145;SDS011;6136;47.032;15.398;2023-10-19T12:24:18;4.47;;;4.07;;
12145;SDS011;6136;47.032;15.398;2023-10-19T12:26:47;5.55;;;4.30;;
12145;SDS011;6136;47.032;15.398;2023-10-19T12:29:17;4.38;;;3.97;;
12145;SDS011;6136;47.032;15.398;2023-10-19T12:31:48;5.47;;;4.40;;
12145;SDS011;6136;47.032;15.398;2023-10-19T12:34:16;4.95;;;4.45;;
12145;SDS011;6136;47.032;15.398;2023-10-19T12:36:45;7.93;;;4.95;;
12145;SDS011;6136;47.032;15.398;2023-10-19T12:39:17;5.63;;;5.00;;
12145;SDS011;6136;47.032;15.398;2023-10-19T12:42:00;6.80;;;5.25;;
12145;SDS011;6136;47.032;15.398;2023-10-19T12:44:30;5.32;;;4.82;;
12145;SDS011;6136;47.032;15.398;2023-10-19T12:47:06;7.38;;;4.47;;
12145;SDS011;6136;47.032;15.398;2023-10-19T12:49:36;5.95;;;5.05;;
12145;SDS011;6136;47.032;15.398;2023-10-19T12:52:06;6.40;;;4.85;;
12145;SDS011;6136;47.032;15.398;2023-10-19T12:54:36;5.25;;;4.55;;
12145;SDS011;6136;47.032;15.398;2023-10-19T12:57:06;7.07;;;4.50;;
12145;SDS011;6136;47.032;15.398;2023-10-19T12:59:36;5.70;;;4.35;;
12145;SDS011;6136;47.032;15.398;2023-10-19T13:02:05;6.65;;;4.47;;
12145;SDS011;6136;47.032;15.398;2023-10-19T13:04:35;6.43;;;4.20;;
12145;SDS011;6136;47.032;15.398;2023-10-19T13:07:04;4.22;;;3.80;;
12145;SDS011;6136;47.032;15.398;2023-10-19T13:09:34;5.25;;;3.88;;
12145;SDS011;6136;47.032;15.398;2023-10-19T13:12:04;4.72;;;3.63;;
12145;SDS011;6136;47.032;15.398;2023-10-19T13:14:34;4.72;;;4.25;;
12145;SDS011;6136;47.032;15.398;2023-10-19T13:17:03;5.03;;;3.80;;
12145;SDS011;6136;47.032;15.398;2023-10-19T13:19:32;7.30;;;4.97;;
12145;SDS011;6136;47.032;15.398;2023-10-19T13:22:03;7.15;;;4.82;;
12145;SDS011;6136;47.032;15.398;2023-10-19T13:24:36;9.35;;;4.80;;
12145;SDS011;6136;47.032;15.398;2023-10-19T13:27:08;9.98;;;5.70;;
12145;SDS011;6136;47.032;15.398;2023-10-19T13:29:37;7.10;;;5.07;;
12145;SDS011;6136;47.032;15.398;2023-10-19T13:32:09;5.38;;;4.45;;
12145;SDS011;6136;47.032;15.398;2023-10-19T13:34:38;10.98;;;4.57;;
12145;SDS011;6136;47.032;15.398;2023-10-19T13:37:07;8.77;;;4.50;;
12145;SDS011;6136;47.032;15.398;2023-10-19T13:39:37;53.30;;;38.97;;
12145;SDS011;6136;47.032;15.398;2023-10-19T13:42:06;19.60;;;15.57;;
12145;SDS011;6136;47.032;15.398;2023-10-19T13:44:36;8.60;;;6.38;;
12145;SDS011;6136;47.032;15.398;2023-10-19T13:47:05;5.68;;;5.03;;
12145;SDS011;6136;47.032;15.398;2023-10-19T13:49:36;7.32;;;4.72;;
12145;SDS011;6136;47.032;15.398;2023-10-19T13:52:04;7.95;;;4.90;;
12145;SDS011;6136;47.032;15.398;2023-10-19T13:54:35;5.70;;;4.82;;
12145;SDS011;6136;47.032;15.398;2023-10-19T13:57:05;7.00;;;5.00;;
12145;SDS011;6136;47.032;15.398;2023-10-19T13:59:34;11.65;;;8.23;;
12145;SDS011;6136;47.032;15.398;2023-10-19T14:02:02;9.88;;;5.60;;
12145;SDS011;6136;47.032;15.398;2023-10-19T14:04:31;7.60;;;5.38;;
12145;SDS011;6136;47.032;15.398;2023-10-19T14:06:59;5.38;;;4.88;;
12145;SDS011;6136;47.032;15.398;2023-10-19T14:09:28;6.63;;;4.68;;
12145;SDS011;6136;47.032;15.398;2023-10-19T14:11:58;5.70;;;4.50;;
12145;SDS011;6136;47.032;15.398;2023-10-19T14:14:30;5.22;;;4.38;;
12145;SDS011;6136;47.032;15.398;2023-10-19T14:16:59;8.95;;;4.97;;
12145;SDS011;6136;47.032;15.398;2023-10-19T14:19:27;7.85;;;5.40;;
12145;SDS011;6136;47.032;15.398;2023-10-19T14:21:59;5.35;;;4.85;;
12145;SDS011;6136;47.032;15.398;2023-10-19T14:24:27;10.80;;;5.80;;
12145;SDS011;6136;47.032;15.398;2023-10-19T14:26:56;5.72;;;5.00;;
12145;SDS011;6136;47.032;15.398;2023-10-19T14:29:26;8.52;;;5.13;;
12145;SDS011;6136;47.032;15.398;2023-10-19T14:31:56;8.32;;;6.03;;
12145;SDS011;6136;47.032;15.398;2023-10-19T14:34:25;10.63;;;6.45;;
12145;SDS011;6136;47.032;15.398;2023-10-19T14:36:54;9.77;;;6.10;;
12145;SDS011;6136;47.032;15.398;2023-10-19T14:39:22;7.90;;;5.90;;
12145;SDS011;6136;47.032;15.398;2023-10-19T14:41:51;6.80;;;5.20;;
12145;SDS011;6136;47.032;15.398;2023-10-19T14:44:19;7.40;;;5.90;;
12145;SDS011;6136;47.032;15.398;2023-10-19T14:46:48;8.60;;;6.85;;
12145;SDS011;6136;47.032;15.398;2023-10-19T14:49:19;8.10;;;5.85;;
12145;SDS011;6136;47.032;15.398;2023-10-19T14:51:48;11.50;;;8.07;;
12145;SDS011;6136;47.032;15.398;2023-10-19T14:54:16;12.45;;;8.88;;
12145;SDS011;6136;47.032;15.398;2023-10-19T14:56:45;9.88;;;8.13;;
12145;SDS011;6136;47.032;15.398;2023-10-19T14:59:13;15.57;;;10.75;;
12145;SDS011;6136;47.032;15.398;2023-10-19T15:01:42;15.40;;;10.93;;